createdAt,value
2023-06-13T00:01:05.919Z,97107.40
2023-06-13T00:03:35.527Z,97089.94
2023-06-13T00:06:03.700Z,97097.86
2023-06-13T00:08:35.508Z,97101.85
2023-06-13T00:11:03.125Z,97093.09
2023-06-13T00:13:30.997Z,97097.93
2023-06-13T00:15:59.296Z,97094.52
2023-06-13T00:18:31.642Z,97099.21
2023-06-13T00:21:00.290Z,97092.79
2023-06-13T00:23:28.319Z,97102.26
2023-06-13T00:25:57.089Z,97094.38
2023-06-13T00:28:25.092Z,97087.23
2023-06-13T00:30:53.348Z,97088.19
2023-06-13T00:33:21.368Z,97092.01
2023-06-13T00:35:49.343Z,97092.01
2023-06-13T00:38:19.179Z,97094.88
2023-06-13T00:40:48.222Z,97087.10
2023-06-13T00:43:19.352Z,97082.84
2023-06-13T00:45:48.755Z,97083.98
2023-06-13T00:48:17.236Z,97083.55
2023-06-13T00:50:45.432Z,97085.27
2023-06-13T00:53:20.027Z,97074.14
2023-06-13T00:55:50.850Z,97072.95
2023-06-13T00:58:19.428Z,97075.22
2023-06-13T01:00:47.525Z,97075.80
2023-06-13T01:03:16.649Z,97068.83
2023-06-13T01:05:47.233Z,97071.09
2023-06-13T01:08:20.136Z,97068.96
2023-06-13T01:10:53.822Z,97056.01
2023-06-13T01:13:31.670Z,97066.83
2023-06-13T01:16:10.653Z,97055.44
2023-06-13T01:18:43.006Z,97059.13
2023-06-13T01:21:13.168Z,97056.99
2023-06-13T01:23:56.310Z,97055.44
2023-06-13T01:26:45.156Z,97054.66
2023-06-13T01:29:18.391Z,97052.29
2023-06-13T01:31:54.338Z,97051.88
2023-06-13T01:34:23.014Z,97046.47
2023-06-13T01:36:52.335Z,97045.66
2023-06-13T01:39:20.166Z,97040.83
2023-06-13T01:41:49.789Z,97040.83
2023-06-13T01:44:22.538Z,97047.96
2023-06-13T01:47:24.435Z,97046.17
2023-06-13T01:50:15.949Z,97045.52
2023-06-13T01:53:07.071Z,97048.16
2023-06-13T01:55:45.391Z,97055.08
2023-06-13T01:58:38.406Z,97052.72
2023-06-13T02:01:08.442Z,97048.45
2023-06-13T02:03:37.650Z,97046.45
2023-06-13T02:06:05.649Z,97050.87
2023-06-13T02:08:35.693Z,97042.33
2023-06-13T02:11:04.103Z,97048.11
2023-06-13T02:13:32.792Z,97044.96
2023-06-13T02:16:05.574Z,97045.53
2023-06-13T02:18:35.833Z,97045.66
2023-06-13T02:21:04.395Z,97041.98
2023-06-13T02:23:33.545Z,97041.41
2023-06-13T02:26:01.811Z,97042.75
2023-06-13T02:28:29.519Z,97045.45
2023-06-13T02:30:57.664Z,97046.03
2023-06-13T02:33:25.659Z,97044.68
2023-06-13T02:35:53.567Z,97042.31
2023-06-13T02:38:21.456Z,97043.46
2023-06-13T02:40:49.785Z,97042.89
2023-06-13T02:43:17.620Z,97042.68
2023-06-13T02:45:45.198Z,97044.45
2023-06-13T02:48:13.042Z,97041.73
2023-06-13T02:50:41.098Z,97041.20
2023-06-13T02:53:09.244Z,97040.76
2023-06-13T02:55:38.111Z,97039.41
2023-06-13T02:58:07.419Z,97040.96
2023-06-13T03:00:35.823Z,97036.91
2023-06-13T03:03:05.762Z,97034.44
2023-06-13T03:05:34.613Z,97034.85
2023-06-13T03:08:03.067Z,97036.41
2023-06-13T03:10:30.826Z,97037.63
2023-06-13T03:12:58.936Z,97033.57
2023-06-13T03:15:27.795Z,97037.29
2023-06-13T03:17:58.564Z,97041.55
2023-06-13T03:20:28.640Z,97038.64
2023-06-13T03:22:58.693Z,97041.11
2023-06-13T03:25:26.594Z,97043.61
2023-06-13T03:27:54.586Z,97040.70
2023-06-13T03:30:22.869Z,97044.96
2023-06-13T03:32:52.810Z,97043.23
2023-06-13T03:35:22.633Z,97043.11
2023-06-13T03:37:50.699Z,97038.71
2023-06-13T03:40:19.344Z,97036.08
2023-06-13T03:42:47.824Z,97038.86
2023-06-13T03:45:17.770Z,97037.58
2023-06-13T03:47:46.962Z,97042.28
2023-06-13T03:50:21.100Z,97046.74
2023-06-13T03:52:49.350Z,97036.13
2023-06-13T03:55:17.779Z,97037.34
2023-06-13T03:57:47.651Z,97042.05
2023-06-13T04:00:16.984Z,97035.14
2023-06-13T04:02:45.878Z,97040.42
2023-06-13T04:05:14.606Z,97035.08
2023-06-13T04:07:44.292Z,97032.64
2023-06-13T04:10:14.334Z,97031.93
2023-06-13T04:12:44.153Z,97032.57
2023-06-13T04:15:12.107Z,97032.57
2023-06-13T04:17:41.128Z,97037.24
2023-06-13T04:20:29.567Z,97033.25
2023-06-13T04:23:00.737Z,97033.69
2023-06-13T04:25:36.255Z,97038.18
2023-06-13T04:28:14.114Z,97035.30
2023-06-13T04:30:46.014Z,97042.51
2023-06-13T04:33:18.073Z,97040.78
2023-06-13T04:35:50.860Z,97043.55
2023-06-13T04:38:21.093Z,97047.12
2023-06-13T04:40:55.014Z,97045.87
2023-06-13T04:43:26.166Z,97044.98
2023-06-13T04:46:02.937Z,97041.22
2023-06-13T04:48:36.352Z,97045.88
2023-06-13T04:51:08.104Z,97040.33
2023-06-13T04:53:41.799Z,97045.03
2023-06-13T04:56:11.725Z,97045.52
2023-06-13T04:58:46.308Z,97042.49
2023-06-13T05:01:16.538Z,97044.63
2023-06-13T05:03:46.443Z,97047.19
2023-06-13T05:06:14.561Z,97040.53
2023-06-13T05:08:42.756Z,97043.50
2023-06-13T05:11:12.601Z,97036.01
2023-06-13T05:13:40.450Z,97043.27
2023-06-13T05:16:10.148Z,97039.66
2023-06-13T05:18:40.032Z,97044.06
2023-06-13T05:21:08.718Z,97045.77
2023-06-13T05:23:38.598Z,97044.72
2023-06-13T05:26:06.766Z,97042.48
2023-06-13T05:28:34.702Z,97040.84
2023-06-13T05:31:02.873Z,97047.72
2023-06-13T05:33:33.804Z,97045.64
2023-06-13T05:36:01.759Z,97054.08
2023-06-13T05:38:29.588Z,97053.16
2023-06-13T05:40:57.755Z,97054.03
2023-06-13T05:43:25.671Z,97055.86
2023-06-13T05:45:53.874Z,97052.03
2023-06-13T05:48:21.456Z,97059.28
2023-06-13T05:50:49.289Z,97055.68
2023-06-13T05:53:17.130Z,97054.02
2023-06-13T05:55:45.366Z,97058.17
2023-06-13T05:58:13.479Z,97063.06
2023-06-13T06:00:42.960Z,97058.76
2023-06-13T06:03:11.050Z,97062.59
2023-06-13T06:05:43.849Z,97061.78
2023-06-13T06:08:12.708Z,97062.20
2023-06-13T06:10:40.593Z,97058.87
2023-06-13T06:13:08.388Z,97066.78
2023-06-13T06:15:36.382Z,97058.83
2023-06-13T06:18:04.673Z,97065.08
2023-06-13T06:20:32.607Z,97062.02
2023-06-13T06:23:00.521Z,97058.56
2023-06-13T06:25:28.565Z,97060.70
2023-06-13T06:27:57.474Z,97056.98
2023-06-13T06:30:26.545Z,97062.95
2023-06-13T06:32:56.085Z,97059.95
2023-06-13T06:35:24.380Z,97058.75
2023-06-13T06:37:52.183Z,97068.25
2023-06-13T06:40:20.316Z,97063.78
2023-06-13T06:42:48.908Z,97057.30
2023-06-13T06:45:18.850Z,97062.22
2023-06-13T06:47:47.155Z,97057.51
2023-06-13T06:50:15.558Z,97063.39
2023-06-13T06:52:44.120Z,97061.56
2023-06-13T06:55:12.338Z,97065.68
2023-06-13T06:57:40.576Z,97063.40
2023-06-13T07:00:13.799Z,97066.94
2023-06-13T07:02:43.382Z,97065.95
2023-06-13T07:05:12.429Z,97064.22
2023-06-13T07:07:41.108Z,97063.82
2023-06-13T07:10:14.510Z,97064.75
2023-06-13T07:12:43.079Z,97061.26
2023-06-13T07:15:10.884Z,97061.11
2023-06-13T07:17:38.976Z,97066.35
2023-06-13T07:20:12.356Z,97065.83
2023-06-13T07:22:41.363Z,97063.92
2023-06-13T07:25:09.311Z,97062.56
2023-06-13T07:27:38.180Z,97067.19
2023-06-13T07:30:09.395Z,97065.63
2023-06-13T07:32:37.218Z,97063.92
2023-06-13T07:35:07.087Z,97064.91
2023-06-13T07:37:35.101Z,97065.33
2023-06-13T07:40:06.216Z,97065.33
2023-06-13T07:42:34.190Z,97063.40
2023-06-13T07:45:02.236Z,97070.03
2023-06-13T07:47:30.297Z,97067.52
2023-06-13T07:49:58.385Z,97069.65
2023-06-13T07:52:26.412Z,97069.45
2023-06-13T07:54:54.434Z,97070.03
2023-06-13T07:59:55.253Z,97071.00
2023-06-13T08:02:24.974Z,97073.92
2023-06-13T08:04:55.673Z,97074.30
2023-06-13T08:07:23.169Z,97073.29
2023-06-13T08:09:51.223Z,97075.02
2023-06-13T08:12:19.143Z,97071.48
2023-06-13T08:14:46.928Z,97073.96
2023-06-13T08:17:14.895Z,97068.72
2023-06-13T08:19:42.722Z,97071.00
2023-06-13T08:22:10.544Z,97068.14
2023-06-13T08:24:38.586Z,97072.20
2023-06-13T08:27:08.499Z,97073.91
2023-06-13T08:29:36.397Z,97063.44
2023-06-13T08:32:05.327Z,97065.38
2023-06-13T08:34:33.595Z,97071.00
2023-06-13T08:37:01.733Z,97070.27
2023-06-13T08:39:29.598Z,97066.84
2023-06-13T08:42:04.338Z,97072.36
2023-06-13T08:44:32.337Z,97072.08
2023-06-13T08:47:00.400Z,97076.09
2023-06-13T08:49:28.417Z,97074.72
2023-06-13T08:51:59.363Z,97079.66
2023-06-13T08:54:29.717Z,97076.21
2023-06-13T08:57:00.040Z,97068.01
2023-06-13T08:59:28.181Z,97061.55
2023-06-13T09:01:58.077Z,97056.05
2023-06-13T09:04:30.653Z,97053.68
2023-06-13T09:06:59.419Z,97053.36
2023-06-13T09:09:28.431Z,97046.10
2023-06-13T09:11:57.773Z,97046.88
2023-06-13T09:14:25.606Z,97052.50
2023-06-13T09:16:56.472Z,97055.09
2023-06-13T09:19:24.618Z,97059.00
2023-06-13T09:21:53.247Z,97057.86
2023-06-13T09:24:21.965Z,97060.38
2023-06-13T09:26:50.888Z,97060.99
2023-06-13T09:29:27.185Z,97057.11
2023-06-13T09:31:49.804Z,97064.23
2023-06-13T09:34:18.692Z,97065.56
2023-06-13T09:36:48.262Z,97066.77
2023-06-13T09:39:19.876Z,97067.54
2023-06-13T09:41:57.287Z,97056.44
2023-06-13T09:47:06.263Z,97061.77
2023-06-13T09:49:45.014Z,97060.47
2023-06-13T09:52:09.768Z,97057.97
2023-06-13T09:54:42.059Z,97060.91
2023-06-13T09:57:13.476Z,97065.42
2023-06-13T09:59:43.209Z,97065.47
2023-06-13T10:02:11.793Z,97068.08
2023-06-13T10:04:40.758Z,97067.92
2023-06-13T10:07:08.486Z,97062.56
2023-06-13T10:09:36.797Z,97067.95
2023-06-13T10:12:09.575Z,97056.17
2023-06-13T10:14:41.554Z,97061.08
2023-06-13T10:17:13.319Z,97049.63
2023-06-13T10:19:42.775Z,97051.42
2023-06-13T10:22:13.606Z,97052.65
2023-06-13T10:24:42.396Z,97050.94
2023-06-13T10:27:11.960Z,97047.83
2023-06-13T10:29:57.660Z,97046.45
2023-06-13T10:32:54.868Z,97045.06
2023-06-13T10:35:34.317Z,97041.54
2023-06-13T10:38:34.759Z,97039.76
2023-06-13T10:41:40.459Z,97036.63
2023-06-13T10:44:22.585Z,97033.09
2023-06-13T10:47:21.979Z,97028.42
2023-06-13T10:49:55.397Z,97018.71
2023-06-13T10:52:27.139Z,97017.56
2023-06-13T10:55:05.128Z,97022.23
2023-06-13T10:57:52.362Z,97019.11
2023-06-13T11:00:34.307Z,97017.36
2023-06-13T11:03:12.152Z,97017.92
2023-06-13T11:05:50.938Z,97016.01
2023-06-13T11:08:25.410Z,97014.05
2023-06-13T11:10:54.291Z,97008.70
2023-06-13T11:13:26.257Z,97013.72
2023-06-13T11:16:20.465Z,97012.48
2023-06-13T11:18:49.425Z,97011.00
2023-06-13T11:21:19.231Z,97007.63
2023-06-13T11:23:58.066Z,97015.48
2023-06-13T11:26:28.700Z,97013.55
2023-06-13T11:28:56.523Z,97001.98
2023-06-13T11:31:24.870Z,97011.70
2023-06-13T11:33:55.374Z,97009.56
2023-06-13T11:36:31.044Z,97008.45
2023-06-13T11:39:01.017Z,97008.75
2023-06-13T11:41:30.757Z,97007.03
2023-06-13T11:44:02.494Z,97007.38
2023-06-13T11:46:31.435Z,97007.54
2023-06-13T11:48:59.585Z,97006.50
2023-06-13T11:51:35.626Z,97000.99
2023-06-13T11:54:03.892Z,97000.94
2023-06-13T11:56:33.869Z,96999.31
2023-06-13T11:59:20.895Z,96999.80
2023-06-13T12:01:54.094Z,97000.06
2023-06-13T12:04:27.345Z,96990.08
2023-06-13T12:06:55.602Z,96990.91
2023-06-13T12:09:23.661Z,96988.11
2023-06-13T12:11:52.431Z,96994.98
2023-06-13T12:14:21.342Z,96984.81
2023-06-13T12:16:54.592Z,96983.56
2023-06-13T12:19:24.058Z,96980.79
2023-06-13T12:21:59.747Z,96989.03
2023-06-13T12:24:30.583Z,96982.23
2023-06-13T12:26:59.073Z,96982.29
2023-06-13T12:29:29.473Z,96978.13
2023-06-13T12:32:04.793Z,96984.41
2023-06-13T12:34:37.501Z,96981.28
2023-06-13T12:37:09.188Z,96983.27
2023-06-13T12:39:38.377Z,96973.52
2023-06-13T12:42:10.149Z,96975.70
2023-06-13T12:44:39.331Z,96973.97
2023-06-13T12:47:09.016Z,96977.16
2023-06-13T12:49:41.154Z,96978.34
2023-06-13T12:52:17.521Z,96979.80
2023-06-13T12:54:46.366Z,96977.35
2023-06-13T12:57:22.126Z,96978.19
2023-06-13T13:00:03.502Z,96983.67
2023-06-13T13:02:42.526Z,96987.78
2023-06-13T13:05:10.976Z,96983.73
2023-06-13T13:07:38.626Z,96994.50
2023-06-13T13:10:09.448Z,96991.98
2023-06-13T13:12:37.151Z,96987.14
2023-06-13T13:15:05.862Z,96987.13
2023-06-13T13:17:34.747Z,96990.06
2023-06-13T13:20:03.894Z,96988.55
2023-06-13T13:22:31.866Z,96992.66
2023-06-13T13:24:59.838Z,96994.62
2023-06-13T13:27:27.692Z,96999.69
2023-06-13T13:29:57.577Z,96997.18
2023-06-13T13:32:27.630Z,96999.70
2023-06-13T13:34:57.985Z,97005.16
2023-06-13T13:37:25.870Z,97007.70
2023-06-13T13:39:53.508Z,97008.11
2023-06-13T13:42:26.279Z,97008.48
2023-06-13T13:44:50.660Z,97009.45
2023-06-13T13:47:18.217Z,97012.39
2023-06-13T13:49:45.983Z,97005.58
2023-06-13T13:52:15.002Z,97010.26
2023-06-13T13:54:43.158Z,97009.08
2023-06-13T13:57:11.209Z,97010.20
2023-06-13T13:59:38.716Z,97011.56
2023-06-13T14:02:06.589Z,97012.55
2023-06-13T14:04:35.075Z,97008.45
2023-06-13T14:07:03.136Z,97010.78
2023-06-13T14:09:32.490Z,97010.58
2023-06-13T14:12:00.551Z,97013.30
2023-06-13T14:14:31.865Z,97011.75
2023-06-13T14:16:59.565Z,97011.52
2023-06-13T14:19:36.783Z,97013.85
2023-06-13T14:22:04.997Z,97013.83
2023-06-13T14:24:34.193Z,97014.95
2023-06-13T14:27:02.094Z,97013.22
2023-06-13T14:29:30.620Z,97018.06
2023-06-13T14:31:58.555Z,97027.73
2023-06-13T14:34:28.731Z,97030.41
2023-06-13T14:36:58.008Z,97033.47
2023-06-13T14:39:25.755Z,97046.22
2023-06-13T14:41:53.443Z,97045.80
2023-06-13T14:44:21.139Z,97045.36
2023-06-13T14:46:48.994Z,97041.86
2023-06-13T14:49:18.675Z,97044.41
2023-06-13T14:51:46.535Z,97053.54
2023-06-13T14:54:16.817Z,97053.94
2023-06-13T14:56:44.859Z,97047.50
2023-06-13T14:59:13.302Z,97046.89
2023-06-13T15:01:41.420Z,97044.71
2023-06-13T15:04:09.678Z,97044.67
2023-06-13T15:06:38.027Z,97042.67
2023-06-13T15:09:05.853Z,97036.63
2023-06-13T15:11:34.742Z,97031.77
2023-06-13T15:14:03.452Z,97034.72
2023-06-13T15:16:34.352Z,97028.70
2023-06-13T15:19:03.016Z,97028.11
2023-06-13T15:21:31.457Z,97035.30
2023-06-13T15:24:00.276Z,97032.22
2023-06-13T15:26:28.680Z,97033.38
2023-06-13T15:28:57.469Z,97029.83
2023-06-13T15:31:26.964Z,97027.48
2023-06-13T15:33:54.854Z,97027.65
2023-06-13T15:36:22.428Z,97024.73
2023-06-13T15:38:50.091Z,97026.07
2023-06-13T15:41:17.813Z,97032.09
2023-06-13T15:43:45.774Z,97035.17
2023-06-13T15:46:13.342Z,97028.18
2023-06-13T15:48:41.155Z,97027.77
2023-06-13T15:51:09.293Z,97031.06
2023-06-13T15:53:38.899Z,97022.94
2023-06-13T15:56:07.523Z,97023.94
2023-06-13T15:58:37.757Z,97022.21
2023-06-13T16:01:06.843Z,97026.70
2023-06-13T16:03:34.818Z,97022.06
2023-06-13T16:06:06.554Z,97029.05
2023-06-13T16:08:37.480Z,97030.41
2023-06-13T16:11:05.935Z,97027.11
2023-06-13T16:13:36.870Z,97035.86
2023-06-13T16:16:10.332Z,97033.16
2023-06-13T16:18:38.704Z,97034.94
2023-06-13T16:21:07.990Z,97030.86
2023-06-13T16:23:37.310Z,97027.97
2023-06-13T16:26:07.983Z,97022.53
2023-06-13T16:28:37.941Z,97025.02
2023-06-13T16:31:06.349Z,97019.22
2023-06-13T16:33:38.469Z,97019.22
2023-06-13T16:36:06.988Z,97022.74
2023-06-13T16:38:38.642Z,97022.38
2023-06-13T16:41:08.841Z,97030.75
2023-06-13T16:43:37.593Z,97022.20
2023-06-13T16:46:08.098Z,97021.84
2023-06-13T16:48:36.546Z,97021.45
2023-06-13T16:51:05.868Z,97024.94
2023-06-13T16:53:37.601Z,97021.86
2023-06-13T16:56:05.855Z,97019.31
2023-06-13T16:58:34.221Z,97023.37
2023-06-13T17:01:04.790Z,97015.57
2023-06-13T17:03:32.752Z,97006.62
2023-06-13T17:06:00.482Z,97005.23
2023-06-13T17:08:28.973Z,97002.50
2023-06-13T17:10:57.757Z,97002.09
2023-06-13T17:13:26.213Z,97009.03
2023-06-13T17:15:54.248Z,97005.69
2023-06-13T17:18:22.241Z,97009.12
2023-06-13T17:20:52.065Z,97013.77
2023-06-13T17:23:19.772Z,97013.70
2023-06-13T17:25:47.416Z,97013.27
2023-06-13T17:28:15.665Z,97019.25
2023-06-13T17:30:43.736Z,97016.50
2023-06-13T17:33:12.534Z,97015.86
2023-06-13T17:35:40.452Z,97016.61
2023-06-13T17:38:08.362Z,97013.25
2023-06-13T17:40:36.531Z,97012.25
2023-06-13T17:43:04.659Z,97013.58
2023-06-13T17:45:33.662Z,97007.11
2023-06-13T17:48:03.653Z,97008.05
2023-06-13T17:50:31.373Z,97005.66
2023-06-13T17:52:59.013Z,97007.56
2023-06-13T17:55:27.577Z,97009.27
2023-06-13T17:57:55.506Z,97007.68
2023-06-13T18:00:23.338Z,97015.20
2023-06-13T18:02:54.359Z,97011.65
2023-06-13T18:05:22.332Z,97019.75
2023-06-13T18:07:52.223Z,97019.36
2023-06-13T18:10:22.132Z,97019.52
2023-06-13T18:12:50.634Z,97021.26
2023-06-13T18:15:19.193Z,97019.86
2023-06-13T18:17:47.898Z,97015.09
2023-06-13T18:20:45.212Z,97035.48
2023-06-13T18:30:01.944Z,97037.53
2023-06-13T18:36:11.284Z,97036.72
2023-06-13T18:45:35.027Z,97047.39
2023-06-13T18:48:04.166Z,97048.12
2023-06-13T19:03:26.416Z,97063.80
2023-06-13T19:05:58.092Z,97062.59
2023-06-13T19:08:28.477Z,97059.10
2023-06-13T19:10:59.873Z,97066.06
2023-06-13T19:13:28.526Z,97066.84
2023-06-13T19:15:57.101Z,97071.48
2023-06-13T19:18:25.855Z,97074.39
2023-06-13T19:20:54.587Z,97074.74
2023-06-13T19:23:25.130Z,97079.04
2023-06-13T19:25:54.474Z,97081.52
2023-06-13T19:28:23.711Z,97078.61
2023-06-13T19:30:54.796Z,97082.68
2023-06-13T19:33:23.662Z,97084.23
2023-06-13T19:35:52.708Z,97088.53
2023-06-13T19:38:33.969Z,97087.17
2023-06-13T19:41:02.961Z,97086.17
2023-06-13T19:43:32.053Z,97086.17
2023-06-13T19:46:01.096Z,97082.87
2023-06-13T19:48:30.230Z,97087.38
2023-06-13T19:51:06.400Z,97084.66
2023-06-13T19:53:33.430Z,97087.95
2023-06-13T19:56:03.725Z,97091.44
2023-06-13T19:58:33.290Z,97085.64
2023-06-13T20:01:03.613Z,97090.28
2023-06-13T20:03:32.037Z,97093.58
2023-06-13T20:06:00.342Z,97093.53
2023-06-13T20:08:29.323Z,97100.88
2023-06-13T20:10:57.425Z,97094.83
2023-06-13T20:13:25.796Z,97098.12
2023-06-13T20:15:54.239Z,97095.78
2023-06-13T20:18:22.925Z,97091.48
2023-06-13T20:21:00.291Z,97094.78
2023-06-13T20:23:31.028Z,97084.55
2023-06-13T20:25:59.682Z,97101.56
2023-06-13T20:28:28.582Z,97097.87
2023-06-13T20:30:56.714Z,97097.44
2023-06-13T20:33:25.034Z,97099.37
2023-06-13T20:35:54.031Z,97100.14
2023-06-13T20:38:28.580Z,97106.00
2023-06-13T20:40:59.793Z,97102.71
2023-06-13T20:43:30.172Z,97099.22
2023-06-13T20:46:00.854Z,97102.34
2023-06-13T20:48:30.988Z,97104.06
2023-06-13T20:51:01.512Z,97100.58
2023-06-13T20:53:39.698Z,97103.84
2023-06-13T20:56:08.378Z,97098.22
2023-06-13T20:58:36.637Z,97099.57
2023-06-13T21:01:04.785Z,97104.99
2023-06-13T21:03:34.802Z,97104.64
2023-06-13T21:06:02.847Z,97103.48
2023-06-13T21:08:32.879Z,97108.34
2023-06-13T21:11:04.477Z,97103.48
2023-06-13T21:13:32.881Z,97107.55
2023-06-13T21:16:01.429Z,97104.99
2023-06-13T21:18:29.670Z,97107.50
2023-06-13T21:20:58.064Z,97112.34
2023-06-13T21:23:26.326Z,97114.86
2023-06-13T21:25:54.403Z,97115.44
2023-06-13T21:28:22.507Z,97111.38
2023-06-13T21:30:52.471Z,97110.56
2023-06-13T21:33:21.540Z,97115.20
2023-06-13T21:35:52.119Z,97114.63
2023-06-13T21:38:21.414Z,97115.44
2023-06-13T21:40:52.568Z,97115.00
2023-06-13T21:43:20.463Z,97123.14
2023-06-13T21:45:52.523Z,97115.00
2023-06-13T21:48:21.673Z,97119.65
2023-06-13T21:50:49.589Z,97116.73
2023-06-13T21:53:18.031Z,97120.57
2023-06-13T21:55:46.860Z,97123.66
2023-06-13T21:58:16.722Z,97125.02
2023-06-13T22:00:45.132Z,97129.66
2023-06-13T22:03:13.911Z,97126.57
2023-06-13T22:05:42.431Z,97127.93
2023-06-13T22:08:11.810Z,97123.28
2023-06-13T22:10:41.601Z,97125.99
2023-06-13T22:13:11.694Z,97125.02
2023-06-13T22:15:44.826Z,97124.23
2023-06-13T22:18:16.386Z,97129.23
2023-06-13T22:20:44.921Z,97130.58
2023-06-13T22:23:13.528Z,97123.03
2023-06-13T22:25:41.903Z,97124.95
2023-06-13T22:28:12.299Z,97127.87
2023-06-13T22:30:45.020Z,97128.02
2023-06-13T22:33:16.808Z,97130.38
2023-06-13T22:35:45.764Z,97125.73
2023-06-13T22:38:15.737Z,97124.38
2023-06-13T22:40:47.350Z,97118.27
2023-06-13T22:43:16.205Z,97126.66
2023-06-13T22:45:44.368Z,97125.10
2023-06-13T22:48:12.359Z,97126.26
2023-06-13T22:50:40.698Z,97129.95
2023-06-13T22:53:08.580Z,97130.73
2023-06-13T22:55:36.451Z,97133.03
2023-06-13T22:58:06.580Z,97130.13
2023-06-13T23:00:35.824Z,97128.77
2023-06-13T23:03:05.393Z,97127.56
2023-06-13T23:05:33.274Z,97125.77
2023-06-13T23:08:01.303Z,97124.01
2023-06-13T23:10:29.647Z,97132.48
2023-06-13T23:12:57.752Z,97129.92
2023-06-13T23:15:25.564Z,97129.52
2023-06-13T23:17:53.836Z,97132.23
2023-06-13T23:20:22.300Z,97130.03
2023-06-13T23:22:50.329Z,97119.85
2023-06-13T23:25:25.479Z,97139.14
2023-06-13T23:28:06.434Z,97129.45
2023-06-13T23:30:40.654Z,97138.73
2023-06-13T23:33:22.603Z,97133.66
2023-06-13T23:39:36.347Z,97127.84
2023-06-13T23:41:48.880Z,97123.72
2023-06-13T23:44:17.110Z,97124.44
2023-06-13T23:46:45.760Z,97124.63
2023-06-13T23:49:14.794Z,97122.50
2023-06-13T23:51:42.880Z,97119.80
2023-06-13T23:54:10.871Z,97119.59
2023-06-13T23:56:38.852Z,97129.27
2023-06-13T23:59:06.904Z,97125.79
